createdAt,value
2019-03-21T00:00:19.117Z,11.10
2019-03-21T00:03:00.013Z,11.00
2019-03-21T00:06:08.528Z,11.00
2019-03-21T00:08:56.307Z,11.00
2019-03-21T00:12:03.435Z,11.00
2019-03-21T00:15:11.930Z,11.00
2019-03-21T00:18:20.445Z,10.90
2019-03-21T00:21:08.598Z,11.00
2019-03-21T00:23:56.404Z,11.00
2019-03-21T00:26:44.239Z,11.00
2019-03-21T00:29:32.022Z,10.90
2019-03-21T00:32:19.822Z,11.00
2019-03-21T00:35:28.565Z,11.00
2019-03-21T00:38:16.357Z,11.00
2019-03-21T00:41:04.142Z,11.10
2019-03-21T00:43:52.262Z,11.10
2019-03-21T00:46:40.049Z,11.10
2019-03-21T00:49:27.818Z,11.10
2019-03-21T00:52:15.606Z,11.10
2019-03-21T00:55:24.110Z,11.10
2019-03-21T00:58:11.917Z,11.10
2019-03-21T01:01:20.410Z,11.00
2019-03-21T01:04:08.197Z,11.00
2019-03-21T01:06:55.978Z,11.10
2019-03-21T01:09:24.417Z,11.10
2019-03-21T01:12:12.525Z,11.20
2019-03-21T01:15:00.404Z,11.20
2019-03-21T01:17:48.500Z,11.10
2019-03-21T01:20:36.290Z,11.10
2019-03-21T01:23:04.722Z,11.10
2019-03-21T01:26:13.247Z,11.10
2019-03-21T01:29:01.013Z,11.00
2019-03-21T01:31:41.330Z,11.00
2019-03-21T01:34:22.498Z,11.10
2019-03-21T01:37:03.213Z,11.10
2019-03-21T01:39:44.203Z,11.00
2019-03-21T01:42:25.238Z,11.00
2019-03-21T01:45:06.149Z,11.00
2019-03-21T01:47:46.973Z,11.10
2019-03-21T01:50:27.621Z,11.00
2019-03-21T01:53:08.422Z,11.10
2019-03-21T01:55:49.503Z,11.10
2019-03-21T01:58:29.959Z,11.00
2019-03-21T02:01:10.922Z,11.10
2019-03-21T02:03:52.025Z,11.10
2019-03-21T02:06:20.474Z,11.10
2019-03-21T02:12:07.346Z,11.00
2019-03-21T02:14:55.134Z,11.20
2019-03-21T02:17:43.270Z,11.20
2019-03-21T02:20:31.133Z,11.20
2019-03-21T02:23:19.277Z,11.20
2019-03-21T02:26:07.093Z,11.30
2019-03-21T02:28:47.773Z,11.20
2019-03-21T02:31:28.624Z,11.20
2019-03-21T02:34:09.692Z,11.10
2019-03-21T02:36:50.834Z,11.10
2019-03-21T02:39:31.346Z,11.20
2019-03-21T02:42:12.154Z,11.10
2019-03-21T02:44:40.693Z,11.10
2019-03-21T02:47:28.555Z,11.20
2019-03-21T02:50:35.649Z,11.10
2019-03-21T02:53:23.454Z,11.20
2019-03-21T02:56:31.995Z,11.20
2019-03-21T02:59:19.755Z,11.20
2019-03-21T03:02:07.878Z,11.20
2019-03-21T03:05:03.982Z,11.10
2019-03-21T03:07:32.685Z,11.10
2019-03-21T03:10:40.063Z,11.10
2019-03-21T03:13:20.802Z,11.20
2019-03-21T03:16:01.489Z,11.10
2019-03-21T03:18:42.791Z,11.10
2019-03-21T03:21:11.233Z,11.10
2019-03-21T03:23:59.026Z,11.20
2019-03-21T03:26:27.480Z,11.20
2019-03-21T03:29:15.352Z,11.20
2019-03-21T03:32:03.375Z,11.20
2019-03-21T03:34:32.138Z,11.10
2019-03-21T03:37:19.956Z,11.20
2019-03-21T03:40:28.523Z,11.20
2019-03-21T03:43:16.333Z,11.20
2019-03-21T03:46:04.136Z,11.10
2019-03-21T03:48:32.587Z,11.10
2019-03-21T03:51:20.363Z,11.10
2019-03-21T03:54:08.542Z,11.10
2019-03-21T03:56:56.314Z,11.20
2019-03-21T03:59:44.110Z,11.10
2019-03-21T04:02:24.918Z,11.10
2019-03-21T04:05:05.750Z,11.10
2019-03-21T04:07:46.643Z,11.10
2019-03-21T04:10:28.046Z,11.10
2019-03-21T04:13:08.835Z,11.10
2019-03-21T04:15:53.336Z,11.10
2019-03-21T04:18:32.261Z,11.10
2019-03-21T04:21:12.683Z,11.10
2019-03-21T04:23:53.402Z,11.10
2019-03-21T04:26:33.962Z,11.10
2019-03-21T04:29:02.389Z,11.20
2019-03-21T04:31:50.184Z,11.10
2019-03-21T04:34:38.198Z,11.10
2019-03-21T04:37:26.250Z,11.10
2019-03-21T04:40:14.933Z,11.10
2019-03-21T04:43:02.734Z,11.20
2019-03-21T04:45:50.507Z,11.10
2019-03-21T04:48:38.707Z,11.10
2019-03-21T04:51:26.507Z,11.10
2019-03-21T04:54:14.298Z,11.10
2019-03-21T04:57:02.071Z,11.00
2019-03-21T04:59:49.870Z,11.10
2019-03-21T05:05:25.113Z,11.20
2019-03-21T05:08:12.906Z,11.10
2019-03-21T05:11:00.674Z,11.20
2019-03-21T05:13:41.030Z,11.10
2019-03-21T05:16:21.866Z,11.00
2019-03-21T05:19:02.892Z,11.10
2019-03-21T05:21:43.600Z,11.00
2019-03-21T05:24:24.594Z,11.10
2019-03-21T05:27:05.314Z,11.10
2019-03-21T05:29:46.013Z,11.20
2019-03-21T05:32:26.694Z,11.10
2019-03-21T05:35:07.626Z,10.90
2019-03-21T05:37:48.710Z,11.10
2019-03-21T05:40:29.349Z,11.10
2019-03-21T05:43:10.347Z,11.10
2019-03-21T05:45:51.014Z,11.10
2019-03-21T05:48:31.513Z,11.10
2019-03-21T05:51:12.494Z,11.20
2019-03-21T05:53:53.457Z,11.20
2019-03-21T05:56:34.288Z,11.30
2019-03-21T05:59:02.742Z,11.20
2019-03-21T06:01:31.165Z,11.10
2019-03-21T06:04:18.965Z,11.10
2019-03-21T06:07:27.544Z,11.20
2019-03-21T06:10:35.494Z,11.20
2019-03-21T06:13:23.281Z,11.20
2019-03-21T06:16:03.866Z,11.10
2019-03-21T06:18:53.185Z,11.10
2019-03-21T06:22:00.335Z,11.10
2019-03-21T06:25:07.453Z,11.10
2019-03-21T06:27:57.848Z,11.10
2019-03-21T06:30:45.618Z,11.00
2019-03-21T06:33:14.072Z,11.10
2019-03-21T06:36:01.973Z,11.20
2019-03-21T06:38:49.826Z,11.00
2019-03-21T06:41:37.629Z,11.00
2019-03-21T06:44:25.397Z,11.00
2019-03-21T06:47:13.200Z,11.10
2019-03-21T06:50:01.002Z,11.10
2019-03-21T06:52:48.781Z,11.20
2019-03-21T06:55:17.532Z,11.20
2019-03-21T06:58:05.385Z,11.20
2019-03-21T07:00:53.153Z,11.20
2019-03-21T07:03:34.134Z,11.10
2019-03-21T07:06:02.573Z,11.00
2019-03-21T07:08:31.029Z,11.10
2019-03-21T07:14:06.273Z,11.10
2019-03-21T07:17:00.381Z,11.20
2019-03-21T07:19:43.577Z,11.30
2019-03-21T07:22:31.358Z,11.20
2019-03-21T07:25:19.174Z,11.20
2019-03-21T07:28:07.025Z,11.10
2019-03-21T07:30:54.906Z,11.20
2019-03-21T07:33:42.705Z,11.30
2019-03-21T07:36:30.475Z,11.30
2019-03-21T07:39:18.530Z,11.20
2019-03-21T07:42:06.462Z,11.20
2019-03-21T07:44:54.238Z,11.20
2019-03-21T07:47:42.063Z,11.10
2019-03-21T07:50:30.079Z,11.20
2019-03-21T07:53:17.860Z,11.20
2019-03-21T07:56:05.647Z,11.10
2019-03-21T07:58:53.690Z,11.20
2019-03-21T08:01:41.728Z,11.00
2019-03-21T08:04:22.572Z,11.10
2019-03-21T08:07:03.574Z,11.30
2019-03-21T08:09:44.727Z,11.30
2019-03-21T08:12:25.345Z,11.20
2019-03-21T08:15:06.390Z,11.30
2019-03-21T08:17:47.363Z,11.30
2019-03-21T08:20:28.182Z,11.20
2019-03-21T08:23:08.857Z,11.20
2019-03-21T08:25:49.597Z,11.20
2019-03-21T08:28:30.609Z,11.10
2019-03-21T08:31:11.577Z,11.10
2019-03-21T08:33:52.138Z,11.10
2019-03-21T08:36:20.867Z,11.20
2019-03-21T08:39:08.641Z,11.30
2019-03-21T08:41:57.094Z,11.30
2019-03-21T08:44:44.896Z,11.40
2019-03-21T08:47:32.677Z,11.10
2019-03-21T08:50:20.490Z,10.90
2019-03-21T08:53:08.297Z,11.40
2019-03-21T08:55:56.081Z,11.20
2019-03-21T08:58:43.872Z,11.10
2019-03-21T09:01:31.702Z,11.20
2019-03-21T09:04:19.534Z,11.10
2019-03-21T09:07:07.694Z,10.90
2019-03-21T09:09:55.461Z,11.00
2019-03-21T09:12:43.268Z,11.00
2019-03-21T09:15:31.033Z,11.00
2019-03-21T09:18:11.980Z,11.30
2019-03-21T09:20:52.564Z,11.30
2019-03-21T09:23:21.031Z,11.00
2019-03-21T09:26:09.082Z,10.80
2019-03-21T09:28:57.125Z,10.80
2019-03-21T09:31:45.169Z,11.40
2019-03-21T09:34:13.618Z,11.20
2019-03-21T09:36:42.090Z,10.90
2019-03-21T09:39:10.578Z,11.00
2019-03-21T09:41:58.379Z,10.90
2019-03-21T09:45:06.898Z,10.80
2019-03-21T09:47:54.672Z,10.90
2019-03-21T09:50:42.463Z,10.80
2019-03-21T09:53:30.517Z,10.90
2019-03-21T09:56:37.492Z,11.00
2019-03-21T09:59:25.282Z,11.00
2019-03-21T10:02:13.359Z,10.90
2019-03-21T10:05:01.442Z,10.90
2019-03-21T10:07:49.589Z,11.20
2019-03-21T10:10:37.611Z,10.90
2019-03-21T10:13:25.414Z,10.90
2019-03-21T10:16:06.207Z,11.10
2019-03-21T10:18:47.321Z,11.00
2019-03-21T10:21:28.385Z,11.00
2019-03-21T10:24:08.951Z,11.00
2019-03-21T10:26:52.261Z,11.10
2019-03-21T10:29:20.717Z,11.10
2019-03-21T10:32:14.121Z,11.10
2019-03-21T10:34:38.695Z,11.20
2019-03-21T10:37:26.506Z,11.30
2019-03-21T10:40:14.301Z,11.20
2019-03-21T10:43:22.274Z,11.20
2019-03-21T10:46:03.445Z,11.10
2019-03-21T10:48:40.692Z,11.10
2019-03-21T10:51:28.479Z,11.20
2019-03-21T10:54:16.333Z,11.40
2019-03-21T10:57:04.506Z,11.40
2019-03-21T10:59:52.285Z,11.30
2019-03-21T11:02:40.083Z,11.30
2019-03-21T11:05:23.087Z,11.40
2019-03-21T11:08:02.851Z,11.50
2019-03-21T11:10:43.369Z,11.30
2019-03-21T11:13:11.823Z,11.30
2019-03-21T11:15:59.665Z,11.50
2019-03-21T11:18:47.503Z,11.50
2019-03-21T11:21:35.605Z,11.50
2019-03-21T11:24:23.478Z,11.50
2019-03-21T11:27:11.342Z,11.50
2019-03-21T11:29:59.227Z,11.60
2019-03-21T11:32:47.061Z,11.50
2019-03-21T11:35:55.849Z,11.40
2019-03-21T11:38:43.638Z,11.50
2019-03-21T11:41:31.435Z,11.70
2019-03-21T11:44:19.302Z,11.80
2019-03-21T11:47:07.108Z,11.70
2019-03-21T11:49:54.887Z,11.60
2019-03-21T11:52:42.773Z,11.90
2019-03-21T11:55:30.635Z,12.00
2019-03-21T11:58:18.426Z,11.80
2019-03-21T12:01:06.191Z,11.80
2019-03-21T12:03:54.071Z,11.90
2019-03-21T12:06:34.608Z,12.00
2019-03-21T12:09:15.558Z,12.10
2019-03-21T12:12:03.720Z,11.80
2019-03-21T12:14:32.313Z,11.90
2019-03-21T12:17:20.583Z,12.10
2019-03-21T12:20:29.265Z,12.00
2019-03-21T12:23:17.303Z,12.20
2019-03-21T12:26:05.279Z,12.30
2019-03-21T12:28:53.177Z,12.10
2019-03-21T12:31:41.076Z,12.20
2019-03-21T12:34:29.037Z,12.10
2019-03-21T12:37:16.918Z,12.10
2019-03-21T12:40:25.565Z,12.20
2019-03-21T12:43:13.466Z,12.10
2019-03-21T12:46:03.942Z,12.20
2019-03-21T12:48:51.960Z,12.40
2019-03-21T12:51:39.807Z,12.40
2019-03-21T12:54:27.982Z,12.50
2019-03-21T12:57:15.924Z,12.70
2019-03-21T13:00:24.864Z,12.60
2019-03-21T13:03:13.123Z,12.70
2019-03-21T13:09:09.525Z,12.60
2019-03-21T13:12:12.810Z,12.60
2019-03-21T13:14:48.191Z,12.60
2019-03-21T13:17:16.991Z,12.40
2019-03-21T13:20:07.228Z,12.40
2019-03-21T13:22:55.656Z,12.50
2019-03-21T13:25:43.584Z,12.60
2019-03-21T13:28:31.519Z,12.50
2019-03-21T13:31:00.046Z,12.50
2019-03-21T13:33:48.375Z,12.50
2019-03-21T13:39:31.038Z,12.50
2019-03-21T13:42:18.908Z,12.50
2019-03-21T13:45:07.095Z,12.50
2019-03-21T13:47:55.057Z,12.70
2019-03-21T13:50:43.073Z,12.60
2019-03-21T13:53:31.466Z,12.60
2019-03-21T13:56:19.368Z,12.70
2019-03-21T13:59:07.252Z,12.80
2019-03-21T14:01:55.229Z,12.80
2019-03-21T14:04:43.301Z,12.70
2019-03-21T14:07:24.311Z,12.70
2019-03-21T14:10:05.719Z,12.70
2019-03-21T14:12:34.458Z,12.80
2019-03-21T14:15:22.620Z,12.70
2019-03-21T14:18:10.723Z,12.70
2019-03-21T14:20:58.781Z,12.60
2019-03-21T14:23:47.127Z,12.60
2019-03-21T14:26:35.664Z,12.70
2019-03-21T14:29:23.815Z,12.60
2019-03-21T14:32:11.878Z,12.70
2019-03-21T14:35:00.378Z,12.70
2019-03-21T14:37:48.496Z,12.60
2019-03-21T14:40:37.360Z,12.60
2019-03-21T14:43:25.340Z,12.80
2019-03-21T14:46:13.264Z,12.80
2019-03-21T14:48:42.026Z,12.80
2019-03-21T14:51:23.257Z,12.90
2019-03-21T14:54:04.442Z,12.90
2019-03-21T14:56:33.032Z,13.00
2019-03-21T14:59:21.116Z,12.80
2019-03-21T15:02:09.208Z,12.90
2019-03-21T15:04:38.007Z,12.90
2019-03-21T15:10:19.954Z,12.90
2019-03-21T15:13:07.807Z,13.00
2019-03-21T15:15:56.134Z,12.90
2019-03-21T15:18:37.302Z,12.80
2019-03-21T15:21:25.594Z,12.70
2019-03-21T15:24:13.609Z,12.70
2019-03-21T15:27:22.326Z,12.70
2019-03-21T15:30:34.502Z,12.70
2019-03-21T15:36:37.437Z,12.80
2019-03-21T15:39:25.571Z,12.80
2019-03-21T15:42:14.226Z,12.90
2019-03-21T15:45:20.553Z,13.00
2019-03-21T15:47:52.695Z,13.20
2019-03-21T15:53:34.588Z,13.20
2019-03-21T15:56:03.297Z,13.10
2019-03-21T16:02:18.080Z,13.30
2019-03-21T16:04:58.837Z,13.40
2019-03-21T16:07:39.713Z,13.20
2019-03-21T16:10:23.427Z,13.40
2019-03-21T16:13:05.398Z,13.30
2019-03-21T16:15:55.725Z,13.10
2019-03-21T16:18:43.980Z,12.90
2019-03-21T16:21:32.933Z,12.90
2019-03-21T16:24:20.961Z,13.10
2019-03-21T16:27:09.200Z,13.00
2019-03-21T16:29:57.525Z,12.90
2019-03-21T16:32:45.453Z,12.80
2019-03-21T16:35:33.466Z,12.90
2019-03-21T16:38:21.470Z,13.00
2019-03-21T16:41:09.762Z,13.30
2019-03-21T16:43:58.388Z,12.90
2019-03-21T16:46:26.918Z,12.90
2019-03-21T16:49:15.533Z,12.80
2019-03-21T16:52:03.671Z,12.90
2019-03-21T16:54:32.708Z,12.90
2019-03-21T16:57:01.410Z,13.20
2019-03-21T16:59:49.970Z,12.90
2019-03-21T17:02:37.928Z,12.90
2019-03-21T17:05:26.157Z,12.90
2019-03-21T17:08:14.705Z,13.00
2019-03-21T17:11:02.705Z,13.30
2019-03-21T17:13:31.579Z,13.30
2019-03-21T17:16:00.461Z,13.50
2019-03-21T17:18:48.558Z,13.10
2019-03-21T17:21:37.071Z,13.00
2019-03-21T17:24:29.635Z,12.90
2019-03-21T17:27:15.237Z,12.90
2019-03-21T17:29:43.929Z,13.30
2019-03-21T17:32:13.621Z,13.00
2019-03-21T17:35:01.612Z,13.40
2019-03-21T17:37:49.727Z,13.10
2019-03-21T17:40:40.474Z,12.80
2019-03-21T17:43:29.265Z,13.00
2019-03-21T17:46:17.141Z,12.90
2019-03-21T17:48:58.289Z,13.00
2019-03-21T17:51:39.463Z,13.10
2019-03-21T17:54:20.663Z,13.40
2019-03-21T17:57:01.333Z,13.20
2019-03-21T17:59:42.376Z,13.20
2019-03-21T18:02:23.126Z,13.20
2019-03-21T18:05:03.889Z,13.20
2019-03-21T18:07:32.433Z,12.80
2019-03-21T18:10:39.587Z,12.70
2019-03-21T18:13:27.456Z,12.60
2019-03-21T18:16:15.362Z,12.80
2019-03-21T18:18:56.341Z,13.40
2019-03-21T18:21:36.864Z,13.20
2019-03-21T18:24:17.934Z,12.90
2019-03-21T18:26:58.611Z,13.00
2019-03-21T18:29:39.342Z,12.90
2019-03-21T18:32:07.917Z,12.80
2019-03-21T18:34:55.734Z,12.90
2019-03-21T18:40:32.513Z,12.80
2019-03-21T18:43:20.348Z,12.80
2019-03-21T18:46:08.261Z,12.80
2019-03-21T18:48:56.787Z,12.60
2019-03-21T18:51:45.026Z,12.60
2019-03-21T18:54:32.914Z,12.50
2019-03-21T18:57:21.074Z,12.60
2019-03-21T19:00:29.625Z,12.40
2019-03-21T19:03:17.474Z,12.40
2019-03-21T19:08:53.516Z,12.30
2019-03-21T19:11:41.679Z,12.20
2019-03-21T19:14:29.729Z,12.20
2019-03-21T19:17:17.534Z,12.30
2019-03-21T19:20:26.081Z,12.30
2019-03-21T19:23:13.888Z,12.20
2019-03-21T19:28:56.770Z,12.10
2019-03-21T19:31:44.695Z,12.10
2019-03-21T19:34:32.544Z,12.10
2019-03-21T19:37:20.384Z,12.20
2019-03-21T19:40:27.554Z,12.20
2019-03-21T19:43:15.426Z,12.20
2019-03-21T19:46:03.469Z,12.20
2019-03-21T19:48:51.268Z,12.20
2019-03-21T19:51:39.078Z,12.10
2019-03-21T19:54:27.202Z,12.30
2019-03-21T19:56:55.673Z,12.30
2019-03-21T19:59:43.546Z,12.60
2019-03-21T20:02:31.365Z,12.60
2019-03-21T20:05:19.171Z,12.40
2019-03-21T20:08:06.989Z,12.80
2019-03-21T20:10:54.979Z,12.60
2019-03-21T20:13:42.768Z,12.50
2019-03-21T20:16:30.539Z,12.40
2019-03-21T20:19:18.599Z,12.40
2019-03-21T20:21:59.389Z,12.40
2019-03-21T20:24:40.502Z,12.60
2019-03-21T20:27:21.502Z,12.50
2019-03-21T20:30:02.396Z,12.70
2019-03-21T20:32:43.629Z,12.50
2019-03-21T20:35:24.413Z,12.40
2019-03-21T20:38:05.211Z,12.50
2019-03-21T20:40:46.297Z,12.30
2019-03-21T20:43:27.225Z,12.30
2019-03-21T20:46:08.126Z,12.20
2019-03-21T20:48:51.669Z,12.20
2019-03-21T20:51:32.721Z,12.30
2019-03-21T20:54:13.147Z,12.30
2019-03-21T20:56:53.701Z,12.20
2019-03-21T20:59:34.202Z,12.10
2019-03-21T21:02:14.898Z,12.10
2019-03-21T21:04:43.355Z,12.20
2019-03-21T21:07:31.158Z,12.20
2019-03-21T21:10:11.829Z,12.40
2019-03-21T21:12:52.519Z,12.40
2019-03-21T21:15:33.429Z,12.80
2019-03-21T21:21:12.911Z,12.50
2019-03-21T21:23:53.532Z,12.50
2019-03-21T21:26:21.990Z,12.30
2019-03-21T21:29:22.157Z,12.30
2019-03-21T21:32:18.774Z,12.30
2019-03-21T21:35:27.302Z,12.20
2019-03-21T21:38:15.238Z,12.30
2019-03-21T21:41:03.525Z,12.30
2019-03-21T21:43:32.230Z,12.30
2019-03-21T21:46:00.659Z,12.30
2019-03-21T21:48:48.454Z,12.40
2019-03-21T21:51:36.239Z,12.50
2019-03-21T21:54:24.123Z,12.60
2019-03-21T21:57:11.973Z,12.70
2019-03-21T21:59:59.762Z,12.50
2019-03-21T22:02:47.535Z,12.50
2019-03-21T22:05:35.615Z,12.30
2019-03-21T22:08:23.403Z,12.40
2019-03-21T22:11:11.202Z,12.30
2019-03-21T22:13:58.977Z,12.30
2019-03-21T22:16:46.765Z,12.20
2019-03-21T22:19:34.820Z,12.20
2019-03-21T22:22:23.033Z,12.20
2019-03-21T22:25:10.973Z,12.20
2019-03-21T22:27:51.308Z,12.10
2019-03-21T22:30:34.301Z,12.20
2019-03-21T22:33:02.931Z,12.30
2019-03-21T22:35:50.704Z,12.30
2019-03-21T22:38:38.490Z,12.20
2019-03-21T22:41:26.258Z,12.20
2019-03-21T22:44:14.048Z,12.20
2019-03-21T22:47:01.900Z,12.20
2019-03-21T22:49:49.689Z,12.10
2019-03-21T22:52:37.524Z,12.10
2019-03-21T22:55:25.378Z,12.10
2019-03-21T22:58:13.461Z,12.20
2019-03-21T23:01:01.583Z,12.30
2019-03-21T23:03:49.374Z,12.30
2019-03-21T23:06:37.157Z,12.50
2019-03-21T23:09:24.950Z,13.00
2019-03-21T23:12:12.731Z,12.80
2019-03-21T23:15:00.516Z,12.70
2019-03-21T23:17:48.325Z,12.40
2019-03-21T23:20:36.275Z,12.30
2019-03-21T23:23:22.270Z,12.20
2019-03-21T23:26:05.524Z,12.40
2019-03-21T23:28:46.815Z,12.50
2019-03-21T23:31:15.417Z,12.30
2019-03-21T23:34:03.384Z,12.10
2019-03-21T23:36:32.009Z,12.00
2019-03-21T23:39:20.129Z,12.00
2019-03-21T23:42:29.694Z,11.90
2019-03-21T23:52:23.540Z,12.00
2019-03-21T23:58:13.853Z,12.10
